Time;durP1;ratioP1;P1;durP2;ratioP2;P2;SDS_P1;SDS_P2;PMS_P1;PMS_P2;Temp;Humidity;BMP_temperature;BMP_pressure;BME280_temperature;BME280_humidity;BME280_pressure;Samples;Min_cycle;Max_cycle;Signal;HPM_P1;HPM_P2
2021/05/28 00:00:17;;;;;;;;;;;;;;;9.26;100.00;96415.38;1278951;23;19904;-64
2021/05/28 00:00:47;;;;;;;;;;;;;;;9.28;100.00;96409.81;1279003;23;19983;-64
2021/05/28 00:01:21;;;;;;;;;;;;;;;9.29;100.00;96414.09;1279113;23;19930;-64
2021/05/28 00:01:52;;;;;;;;;;;;;;;9.28;100.00;96410.63;1279005;23;19908;-64
2021/05/28 00:02:22;;;;;;;;;;;;;;;9.29;100.00;96404.22;1278512;23;19928;-64
2021/05/28 00:02:52;;;;;;;;;;;;;;;9.27;100.00;96405.53;1278742;23;19908;-64
2021/05/28 00:03:22;;;;;;;;;;;;;;;9.24;100.00;96408.69;1278690;23;19955;-64
2021/05/28 00:03:53;;;;;;;;;;;;;;;9.24;100.00;96408.69;1278777;23;19982;-64
2021/05/28 00:04:23;;;;;;;;;;;;;;;9.23;100.00;96405.22;1278678;23;19908;-64
2021/05/28 00:04:53;;;;;;;;;;;;;;;9.20;100.00;96412.91;1279151;23;19908;-64
2021/05/28 00:05:24;;;;;;;;;;;;;;;9.19;100.00;96408.66;1278976;23;20302;-64
2021/05/28 00:05:54;;;;;;;;;;;;;;;9.18;100.00;96410.50;1279184;23;19908;-64
2021/05/28 00:06:24;;;;;;;;;;;;;;;9.18;100.00;96409.72;1278748;23;20238;-64
2021/05/28 00:06:54;;;;;;;;;;;;;;;9.19;100.00;96403.31;1279121;23;19900;-64
2021/05/28 00:07:25;;;;;;;;;;;;;;;9.19;100.00;96412.13;1279012;23;19947;-64
2021/05/28 00:07:55;;;;;;;;;;;;;;;9.21;100.00;96417.19;1278913;23;20278;-64
2021/05/28 00:08:25;;;;;;;;;;;;;;;9.20;100.00;96416.38;1278909;23;19900;-64
2021/05/28 00:08:56;;;;;;;;;;;;;;;9.20;100.00;96412.91;1278976;23;19900;-64
2021/05/28 00:09:26;;;;;;;;;;;;;;;9.15;100.00;96416.34;1278740;23;19935;-64
2021/05/28 00:09:56;;;;;;;;;;;;;;;9.17;100.00;96414.25;1279068;23;19901;-65
2021/05/28 00:10:27;;;;;;;;;;;;;;;9.16;100.00;96414.47;1278985;23;19900;-64
2021/05/28 00:10:57;;;;;;;;;;;;;;;9.16;100.00;96419.81;1279052;23;19904;-64
2021/05/28 00:11:27;;;;;;;;;;;;;;;9.15;100.00;96413.66;1278912;23;19900;-64
2021/05/28 00:11:58;;;;;;;;;;;;;;;9.14;100.00;96417.41;1279096;23;20233;-64
2021/05/28 00:12:29;;;;;;;;;;;;;;;9.14;100.00;96412.06;1278988;23;19907;-64
2021/05/28 00:13:00;;;;;;;;;;;;;;;9.13;100.00;96412.31;1279033;23;19900;-64
2021/05/28 00:13:30;;;;;;;;;;;;;;;9.13;100.00;96418.47;1279000;23;19901;-64
2021/05/28 00:14:00;;;;;;;;;;;;;;;9.15;100.00;96416.34;1278790;23;19904;-64
2021/05/28 00:14:30;;;;;;;;;;;;;;;9.13;100.00;96413.13;1278931;23;19935;-64
2021/05/28 00:15:01;;;;;;;;;;;;;;;9.12;100.00;96419.53;1278946;23;19954;-64
2021/05/28 00:15:33;;;;;;;;;;;;;;;9.11;100.00;96413.38;1278826;23;20341;-64
2021/05/28 00:16:03;;;;;;;;;;;;;;;9.13;100.00;96420.31;1278947;23;20275;-65
2021/05/28 00:16:33;;;;;;;;;;;;;;;9.09;100.00;96415.47;1278881;23;19971;-65
2021/05/28 00:17:03;;;;;;;;;;;;;;;9.10;100.00;96413.63;1278969;23;19904;-64
2021/05/28 00:17:34;;;;;;;;;;;;;;;9.10;100.00;96419.75;1278841;23;19901;-64
2021/05/28 00:18:04;;;;;;;;;;;;;;;9.06;100.00;96409.84;1278902;23;20251;-65
2021/05/28 00:18:34;;;;;;;;;;;;;;;9.07;100.00;96414.94;1278996;23;19908;-64
2021/05/28 00:19:05;;;;;;;;;;;;;;;9.07;100.00;96419.47;1279087;23;20254;-64
2021/05/28 00:19:35;;;;;;;;;;;;;;;9.07;100.00;96419.47;1279112;23;19927;-64
2021/05/28 00:20:06;;;;;;;;;;;;;;;9.06;100.00;96420.53;1279159;23;19905;-64
2021/05/28 00:20:36;;;;;;;;;;;;;;;9.06;100.00;96417.84;1279057;23;19924;-64
2021/05/28 00:21:06;;;;;;;;;;;;;;;9.06;100.00;96420.53;1278711;23;19900;-65
2021/05/28 00:21:37;;;;;;;;;;;;;;;9.06;100.00;96415.19;1278490;23;19900;-64
2021/05/28 00:22:07;;;;;;;;;;;;;;;9.03;100.00;96421.00;1278676;23;20362;-64
2021/05/28 00:22:37;;;;;;;;;;;;;;;9.02;100.00;96416.75;1266313;23;19997;-64
2021/05/28 00:23:08;;;;;;;;;;;;;;;9.02;100.00;96422.06;1266470;23;19951;-64
2021/05/28 00:23:38;;;;;;;;;;;;;;;9.02;100.00;96422.06;1272300;23;19900;-65
2021/05/28 00:24:08;;;;;;;;;;;;;;;9.02;100.00;96416.75;1266281;23;20215;-64
2021/05/28 00:24:39;;;;;;;;;;;;;;;9.04;100.00;96422.63;1278373;23;19956;-65
2021/05/28 00:25:09;;;;;;;;;;;;;;;9.03;100.00;96426.34;1272280;23;19908;-64
2021/05/28 00:25:39;;;;;;;;;;;;;;;9.01;100.00;96418.59;1272316;23;19911;-64
2021/05/28 00:26:10;;;;;;;;;;;;;;;9.01;100.00;96415.13;1272206;23;19901;-64
2021/05/28 00:26:40;;;;;;;;;;;;;;;9.02;100.00;96416.75;1266135;23;19901;-64
2021/05/28 00:27:10;;;;;;;;;;;;;;;9.04;100.00;96425.28;1266310;23;19995;-64
2021/05/28 00:27:42;;;;;;;;;;;;;;;8.97;100.00;96414.00;1260376;23;19908;-65
2021/05/28 00:28:12;;;;;;;;;;;;;;;8.95;100.00;96411.56;1272650;23;19904;-64
2021/05/28 00:28:47;;;;;;;;;;;;;;;8.97;100.00;96412.16;1278326;23;19900;-65
2021/05/28 00:29:18;;;;;;;;;;;;;;;8.99;100.00;96414.56;1278743;23;19901;-64
2021/05/28 00:29:48;;;;;;;;;;;;;;;8.98;100.00;96416.41;1278982;23;19908;-64
2021/05/28 00:30:18;;;;;;;;;;;;;;;8.96;100.00;96412.41;1278438;23;19936;-64
2021/05/28 00:30:48;;;;;;;;;;;;;;;8.98;100.00;96416.41;1278489;23;19908;-64
2021/05/28 00:31:19;;;;;;;;;;;;;;;8.99;100.00;96414.56;1278593;23;19936;-64
2021/05/28 00:31:49;;;;;;;;;;;;;;;9.01;100.00;96412.47;1278404;23;19908;-64
2021/05/28 00:32:19;;;;;;;;;;;;;;;9.00;100.00;96421.50;1279004;23;20306;-64
2021/05/28 00:32:50;;;;;;;;;;;;;;;8.98;100.00;96415.63;1279016;23;19935;-64
2021/05/28 00:33:20;;;;;;;;;;;;;;;8.96;100.00;96423.88;1272296;23;20227;-64
2021/05/28 00:33:50;;;;;;;;;;;;;;;8.97;100.00;96414.00;1266439;23;19916;-64
2021/05/28 00:34:21;;;;;;;;;;;;;;;8.97;100.00;96424.69;1260085;23;19901;-64
2021/05/28 00:34:51;;;;;;;;;;;;;;;8.94;100.00;96415.31;1260200;23;19909;-64
2021/05/28 00:35:21;;;;;;;;;;;;;;;8.94;100.00;96419.81;1272498;23;19951;-64
2021/05/28 00:35:51;;;;;;;;;;;;;;;8.92;100.00;96420.09;1278754;23;19908;-64
2021/05/28 00:36:22;;;;;;;;;;;;;;;8.92;100.00;96422.75;1279017;23;19900;-64
2021/05/28 00:36:52;;;;;;;;;;;;;;;8.93;100.00;96415.56;1278957;23;20286;-64
2021/05/28 00:37:22;;;;;;;;;;;;;;;8.92;100.00;96416.63;1278570;23;19900;-64
2021/05/28 00:37:53;;;;;;;;;;;;;;;8.94;100.00;96417.16;1278632;23;19952;-64
2021/05/28 00:38:23;;;;;;;;;;;;;;;8.95;100.00;96419.56;1278592;23;19979;-64
2021/05/28 00:38:53;;;;;;;;;;;;;;;8.97;100.00;96424.69;1278604;23;20030;-65
2021/05/28 00:39:24;;;;;;;;;;;;;;;8.95;100.00;96421.44;1278713;23;19900;-64
2021/05/28 00:39:54;;;;;;;;;;;;;;;8.95;100.00;96421.44;1279013;23;20311;-64
2021/05/28 00:40:25;;;;;;;;;;;;;;;8.95;100.00;96427.56;1278955;23;19908;-64
2021/05/28 00:40:55;;;;;;;;;;;;;;;8.96;100.00;96420.41;1278999;23;19984;-65
2021/05/28 00:41:26;;;;;;;;;;;;;;;8.95;100.00;96419.56;1278924;23;20210;-65
2021/05/28 00:41:56;;;;;;;;;;;;;;;8.94;100.00;96419.81;1279065;23;19970;-65
2021/05/28 00:42:26;;;;;;;;;;;;;;;8.92;100.00;96420.09;1279139;23;19900;-64
2021/05/28 00:42:57;;;;;;;;;;;;;;;8.95;100.00;96422.25;1279037;23;19943;-64
2021/05/28 00:43:27;;;;;;;;;;;;;;;8.97;100.00;96419.34;1279088;23;19901;-64
2021/05/28 00:43:57;;;;;;;;;;;;;;;8.94;100.00;96417.97;1278954;23;19907;-64
2021/05/28 00:44:27;;;;;;;;;;;;;;;8.91;100.00;96423.81;1278997;23;19909;-64
2021/05/28 00:44:58;;;;;;;;;;;;;;;8.92;100.00;96422.75;1279072;23;19923;-64
2021/05/28 00:45:28;;;;;;;;;;;;;;;8.90;100.00;96426.72;1278975;23;19955;-64
2021/05/28 00:45:59;;;;;;;;;;;;;;;8.89;100.00;96422.44;1279097;23;19912;-65
2021/05/28 00:46:29;;;;;;;;;;;;;;;8.87;100.00;96416.56;1278973;23;20245;-64
2021/05/28 00:47:00;;;;;;;;;;;;;;;8.88;100.00;96423.50;1279113;23;19936;-64
2021/05/28 00:47:30;;;;;;;;;;;;;;;8.85;100.00;96417.63;1279095;23;19959;-64
2021/05/28 00:48:00;;;;;;;;;;;;;;;8.85;100.00;96422.13;1278959;23;20379;-65
2021/05/28 00:48:30;;;;;;;;;;;;;;;8.86;100.00;96423.75;1278749;23;19904;-65
2021/05/28 00:49:01;;;;;;;;;;;;;;;8.85;100.00;96420.28;1278725;23;19987;-65
2021/05/28 00:49:31;;;;;;;;;;;;;;;8.83;100.00;96422.38;1278775;23;19959;-65
2021/05/28 00:50:01;;;;;;;;;;;;;;;8.83;100.00;96422.38;1278892;23;19974;-64
2021/05/28 00:50:32;;;;;;;;;;;;;;;8.83;100.00;96414.38;1278827;23;19911;-64
2021/05/28 00:51:02;;;;;;;;;;;;;;;8.84;100.00;96418.66;1278799;23;19908;-64
2021/05/28 00:51:32;;;;;;;;;;;;;;;8.84;100.00;96426.63;1278696;23;19908;-65
2021/05/28 00:52:03;;;;;;;;;;;;;;;8.84;100.00;96420.50;1278814;23;20337;-65
2021/05/28 00:52:33;;;;;;;;;;;;;;;8.85;100.00;96422.94;1278286;23;20285;-64
2021/05/28 00:53:03;;;;;;;;;;;;;;;8.85;100.00;96427.44;1278643;23;19912;-64
2021/05/28 00:53:34;;;;;;;;;;;;;;;8.85;100.00;96422.13;1278582;23;19900;-64
2021/05/28 00:54:04;;;;;;;;;;;;;;;8.83;100.00;96425.03;1278499;23;19916;-65
2021/05/28 00:54:34;;;;;;;;;;;;;;;8.81;100.00;96416.50;1278879;23;19958;-65
2021/05/28 00:55:05;;;;;;;;;;;;;;;8.82;100.00;96418.09;1279009;23;19943;-64
2021/05/28 00:55:35;;;;;;;;;;;;;;;8.82;100.00;96414.63;1278671;23;19950;-64
2021/05/28 00:56:05;;;;;;;;;;;;;;;8.80;100.00;96417.56;1278687;23;20211;-64
2021/05/28 00:56:36;;;;;;;;;;;;;;;8.80;100.00;96422.88;1278592;23;19928;-64
2021/05/28 00:57:07;;;;;;;;;;;;;;;8.79;100.00;96413.25;1278734;23;19991;-65
2021/05/28 00:57:37;;;;;;;;;;;;;;;8.82;100.00;96415.44;1278868;23;19896;-64
2021/05/28 00:58:07;;;;;;;;;;;;;;;8.83;100.00;96424.22;1278949;23;19954;-64
2021/05/28 00:58:38;;;;;;;;;;;;;;;8.83;100.00;96417.03;1278903;23;19897;-65
2021/05/28 00:59:08;;;;;;;;;;;;;;;8.82;100.00;96417.31;1278938;23;19912;-64
2021/05/28 00:59:38;;;;;;;;;;;;;;;8.81;100.00;96413.03;1278444;23;19922;-64
2021/05/28 01:00:09;;;;;;;;;;;;;;;8.80;100.00;96419.38;1278666;23;19930;-64
2021/05/28 01:00:39;;;;;;;;;;;;;;;8.81;100.00;96423.69;1278529;23;19962;-64
2021/05/28 01:01:09;;;;;;;;;;;;;;;8.80;100.00;96416.72;1278649;23;19908;-65
2021/05/28 01:01:39;;;;;;;;;;;;;;;8.81;100.00;96416.50;1278886;23;20215;-65
2021/05/28 01:02:10;;;;;;;;;;;;;;;8.82;100.00;96426.09;1278850;23;19915;-64
2021/05/28 01:02:40;;;;;;;;;;;;;;;8.80;100.00;96417.56;1278916;23;19896;-65
2021/05/28 01:03:10;;;;;;;;;;;;;;;8.79;100.00;96431.09;1278815;23;20318;-64
2021/05/28 01:03:40;;;;;;;;;;;;;;;8.77;100.00;96417.25;1278832;23;19950;-65
2021/05/28 01:04:11;;;;;;;;;;;;;;;8.78;100.00;96424.97;1278629;23;19931;-65
2021/05/28 01:04:41;;;;;;;;;;;;;;;8.78;100.00;96426.84;1278855;23;19996;-65
2021/05/28 01:05:11;;;;;;;;;;;;;;;8.75;100.00;96428.16;1278994;23;19984;-64
2021/05/28 01:05:42;;;;;;;;;;;;;;;8.75;100.00;96425.50;1278900;23;19896;-65
2021/05/28 01:06:12;;;;;;;;;;;;;;;8.76;100.00;96434.28;1278796;23;19914;-65
2021/05/28 01:06:42;;;;;;;;;;;;;;;8.77;100.00;96426.03;1278918;23;19904;-65
2021/05/28 01:07:12;;;;;;;;;;;;;;;8.77;100.00;96422.56;1278905;23;19929;-65
2021/05/28 01:07:43;;;;;;;;;;;;;;;8.73;100.00;96426.78;1278934;23;19931;-65
2021/05/28 01:08:13;;;;;;;;;;;;;;;8.70;100.00;96430.75;1278800;23;20341;-65
2021/05/28 01:08:43;;;;;;;;;;;;;;;8.69;100.00;96426.44;1278886;23;19904;-64
2021/05/28 01:09:14;;;;;;;;;;;;;;;8.71;100.00;96431.56;1278849;23;19950;-65
2021/05/28 01:09:44;;;;;;;;;;;;;;;8.70;100.00;96428.09;1278868;23;20314;-65
2021/05/28 01:10:14;;;;;;;;;;;;;;;8.70;100.00;96436.09;1278915;23;19904;-65
2021/05/28 01:10:45;;;;;;;;;;;;;;;8.70;100.00;96435.25;1278953;23;19911;-65
2021/05/28 01:11:15;;;;;;;;;;;;;;;8.72;100.00;96436.63;1278948;23;19955;-64
2021/05/28 01:11:45;;;;;;;;;;;;;;;8.70;100.00;96433.41;1278980;23;19954;-64
2021/05/28 01:12:16;;;;;;;;;;;;;;;8.71;100.00;96435.03;1278431;23;19939;-64
2021/05/28 01:12:46;;;;;;;;;;;;;;;8.70;100.00;96429.91;1278545;23;19904;-64
2021/05/28 01:13:16;;;;;;;;;;;;;;;8.70;100.00;96436.09;1278426;23;20179;-65
2021/05/28 01:13:46;;;;;;;;;;;;;;;8.69;100.00;96423.78;1278443;23;19932;-64
2021/05/28 01:14:17;;;;;;;;;;;;;;;8.71;100.00;96432.34;1278274;23;19910;-65
2021/05/28 01:14:49;;;;;;;;;;;;;;;8.71;100.00;96436.88;1278425;23;19904;-65
2021/05/28 01:15:19;;;;;;;;;;;;;;;8.69;100.00;96428.31;1278437;23;19927;-65
2021/05/28 01:15:50;;;;;;;;;;;;;;;8.70;100.00;96421.94;1278299;23;19935;-65
2021/05/28 01:16:20;;;;;;;;;;;;;;;8.68;100.00;96432.84;1278719;23;19951;-65
2021/05/28 01:16:50;;;;;;;;;;;;;;;8.70;100.00;96430.75;1278793;23;19954;-65
2021/05/28 01:17:21;;;;;;;;;;;;;;;8.70;100.00;96433.41;1278762;23;19919;-64
2021/05/28 01:17:51;;;;;;;;;;;;;;;8.72;100.00;96428.63;1278456;23;19932;-65
2021/05/28 01:18:22;;;;;;;;;;;;;;;8.71;100.00;96419.03;1272213;23;19905;-65
2021/05/28 01:18:52;;;;;;;;;;;;;;;8.72;100.00;96423.31;1272258;23;19936;-64
2021/05/28 01:19:25;;;;;;;;;;;;;;;8.69;100.00;96423.78;1272511;23;19911;-65
2021/05/28 01:19:55;;;;;;;;;;;;;;;8.69;100.00;96423.78;1278693;23;20303;-65
2021/05/28 01:20:25;;;;;;;;;;;;;;;8.67;100.00;96425.09;1278988;23;19911;-64
2021/05/28 01:20:56;;;;;;;;;;;;;;;8.65;100.00;96420.03;1279021;23;19900;-64
2021/05/28 01:21:26;;;;;;;;;;;;;;;8.66;100.00;96420.84;1278990;23;19908;-64
2021/05/28 01:22:03;;;;;;;;;;;;;;;8.65;100.00;96416.53;1278655;23;19900;-65
2021/05/28 01:22:34;;;;;;;;;;;;;;;8.64;100.00;96421.06;1278825;23;19911;-64
2021/05/28 01:23:04;;;;;;;;;;;;;;;8.66;100.00;96418.16;1278801;23;19998;-65
2021/05/28 01:23:36;;;;;;;;;;;;;;;8.67;100.00;96422.44;1278832;23;20238;-64
2021/05/28 01:24:06;;;;;;;;;;;;;;;8.66;100.00;96424.31;1278785;23;19911;-64
2021/05/28 01:24:36;;;;;;;;;;;;;;;8.67;100.00;96425.91;1278868;23;19904;-64
2021/05/28 01:25:07;;;;;;;;;;;;;;;8.67;100.00;96420.56;1278909;23;19907;-64
2021/05/28 01:25:37;;;;;;;;;;;;;;;8.68;100.00;96422.19;1279061;23;20318;-64
2021/05/28 01:26:08;;;;;;;;;;;;;;;8.68;100.00;96422.19;1278939;23;19900;-64
2021/05/28 01:26:38;;;;;;;;;;;;;;;8.69;100.00;96422.97;1278708;23;20307;-64
2021/05/28 01:27:08;;;;;;;;;;;;;;;8.68;100.00;96424.84;1278919;23;20309;-64
2021/05/28 01:27:39;;;;;;;;;;;;;;;8.68;100.00;96427.50;1278551;23;20321;-64
2021/05/28 01:28:10;;;;;;;;;;;;;;;8.67;100.00;96428.56;1278502;23;19893;-64
2021/05/28 01:28:40;;;;;;;;;;;;;;;8.64;100.00;96423.72;1278324;23;20199;-64
2021/05/28 01:29:11;;;;;;;;;;;;;;;8.64;100.00;96423.72;1278188;23;19896;-64
2021/05/28 01:29:41;;;;;;;;;;;;;;;8.65;100.00;96424.53;1278901;23;19916;-64
2021/05/28 01:30:12;;;;;;;;;;;;;;;8.62;100.00;96427.69;1278987;23;20198;-64
2021/05/28 01:30:42;;;;;;;;;;;;;;;8.64;100.00;96430.91;1278423;23;20274;-64
2021/05/28 01:31:12;;;;;;;;;;;;;;;8.62;100.00;96428.50;1278572;23;19896;-64
2021/05/28 01:31:43;;;;;;;;;;;;;;;8.63;100.00;96422.13;1278668;23;20302;-64
2021/05/28 01:32:13;;;;;;;;;;;;;;;8.65;100.00;96424.53;1278666;23;19900;-64
2021/05/28 01:32:43;;;;;;;;;;;;;;;8.63;100.00;96427.44;1279063;23;19896;-64
2021/05/28 01:33:14;;;;;;;;;;;;;;;8.61;100.00;96424.22;1278963;23;20374;-64
2021/05/28 01:33:44;;;;;;;;;;;;;;;8.61;100.00;96426.91;1278889;23;20298;-64
2021/05/28 01:34:15;;;;;;;;;;;;;;;8.61;100.00;96420.75;1278932;23;19900;-64
2021/05/28 01:34:45;;;;;;;;;;;;;;;8.61;100.00;96423.44;1278575;23;20332;-64
2021/05/28 01:35:15;;;;;;;;;;;;;;;8.61;100.00;96424.22;1278562;23;19896;-64
2021/05/28 01:35:46;;;;;;;;;;;;;;;8.63;100.00;96422.13;1278582;23;20325;-64
2021/05/28 01:36:16;;;;;;;;;;;;;;;8.61;100.00;96424.22;1278748;23;19904;-64
2021/05/28 01:36:46;;;;;;;;;;;;;;;8.63;100.00;96422.13;1278622;23;19959;-64
2021/05/28 01:37:17;;;;;;;;;;;;;;;8.64;100.00;96423.72;1278576;23;19896;-64
2021/05/28 01:37:47;;;;;;;;;;;;;;;8.62;100.00;96436.50;1278534;23;19897;-64
2021/05/28 01:38:17;;;;;;;;;;;;;;;8.60;100.00;96417.28;1278740;23;19980;-64
2021/05/28 01:38:48;;;;;;;;;;;;;;;8.58;100.00;96428.19;1273144;23;19896;-64
2021/05/28 01:39:18;;;;;;;;;;;;;;;8.58;100.00;96422.84;1275333;23;19901;-64
2021/05/28 01:39:49;;;;;;;;;;;;;;;8.61;100.00;96426.91;1275433;23;20286;-64
2021/05/28 01:40:20;;;;;;;;;;;;;;;8.59;100.00;96419.13;1276436;23;19904;-64
2021/05/28 01:40:51;;;;;;;;;;;;;;;8.55;100.00;96423.34;1282514;23;19899;-64
2021/05/28 01:41:21;;;;;;;;;;;;;;;8.52;100.00;96421.19;1280847;23;19922;-64
2021/05/28 01:41:52;;;;;;;;;;;;;;;8.53;100.00;96419.31;1274050;23;19896;-63
2021/05/28 01:42:22;;;;;;;;;;;;;;;8.54;100.00;96419.06;1273575;23;19896;-64
2021/05/28 01:42:52;;;;;;;;;;;;;;;8.50;100.00;96417.16;1272653;23;19944;-64
2021/05/28 01:43:22;;;;;;;;;;;;;;;8.48;100.00;96417.38;1278761;23;20257;-63
2021/05/28 01:43:53;;;;;;;;;;;;;;;8.48;100.00;96422.72;1278975;23;19918;-64
2021/05/28 01:44:23;;;;;;;;;;;;;;;8.48;100.00;96421.91;1278850;23;19897;-63
2021/05/28 01:44:53;;;;;;;;;;;;;;;8.48;100.00;96421.91;1279017;23;19897;-64
2021/05/28 01:45:24;;;;;;;;;;;;;;;8.49;100.00;96420.84;1278896;23;19912;-64
2021/05/28 01:45:54;;;;;;;;;;;;;;;8.50;100.00;96419.81;1278931;23;19965;-64
2021/05/28 01:46:25;;;;;;;;;;;;;;;8.51;100.00;96419.56;1278815;23;19931;-63
2021/05/28 01:46:55;;;;;;;;;;;;;;;8.51;100.00;96418.78;1278993;23;19911;-63
2021/05/28 01:47:25;;;;;;;;;;;;;;;8.51;100.00;96413.44;1278934;23;19923;-63
2021/05/28 01:47:55;;;;;;;;;;;;;;;8.44;100.00;96418.94;1278969;23;19904;-64
2021/05/28 01:48:26;;;;;;;;;;;;;;;8.42;100.00;96425.56;1279010;23;19900;-64
2021/05/28 01:48:56;;;;;;;;;;;;;;;8.44;100.00;96426.09;1278832;23;20307;-64
2021/05/28 01:49:26;;;;;;;;;;;;;;;8.45;100.00;96422.41;1278911;23;19978;-64
2021/05/28 01:49:56;;;;;;;;;;;;;;;8.44;100.00;96420.78;1278944;23;19908;-63
2021/05/28 01:50:27;;;;;;;;;;;;;;;8.40;100.00;96423.16;1278921;23;19990;-64
2021/05/28 01:50:57;;;;;;;;;;;;;;;8.39;100.00;96423.38;1278994;23;19911;-64
2021/05/28 01:51:27;;;;;;;;;;;;;;;8.39;100.00;96423.38;1279075;23;19900;-64
2021/05/28 01:51:58;;;;;;;;;;;;;;;8.39;100.00;96420.72;1278816;23;20513;-64
2021/05/28 01:52:28;;;;;;;;;;;;;;;8.39;100.00;96426.03;1278775;23;19946;-63
2021/05/28 01:52:58;;;;;;;;;;;;;;;8.40;100.00;96425.00;1279068;23;19910;-64
2021/05/28 01:53:28;;;;;;;;;;;;;;;8.41;100.00;96415.97;1278968;23;20345;-65
2021/05/28 01:53:59;;;;;;;;;;;;;;;8.41;100.00;96421.28;1278988;23;19901;-65
2021/05/28 01:54:29;;;;;;;;;;;;;;;8.38;100.00;96419.91;1278724;23;19979;-65
2021/05/28 01:54:59;;;;;;;;;;;;;;;8.33;100.00;96414.47;1278981;23;19900;-64
2021/05/28 01:55:29;;;;;;;;;;;;;;;8.32;100.00;96418.19;1278979;23;19935;-64
2021/05/28 01:56:00;;;;;;;;;;;;;;;8.33;100.00;96414.47;1278984;23;20303;-65
2021/05/28 01:56:30;;;;;;;;;;;;;;;8.32;100.00;96413.69;1278973;23;19906;-65
2021/05/28 01:57:01;;;;;;;;;;;;;;;8.35;100.00;96423.06;1279022;23;19923;-65
2021/05/28 01:57:31;;;;;;;;;;;;;;;8.33;100.00;96422.47;1279045;23;19907;-65
2021/05/28 01:58:05;;;;;;;;;;;;;;;8.33;100.00;96420.59;1278969;23;19907;-65
2021/05/28 01:58:35;;;;;;;;;;;;;;;8.37;100.00;96422.81;1278981;23;19900;-65
2021/05/28 01:59:06;;;;;;;;;;;;;;;8.32;100.00;96416.34;1279071;23;20238;-65
2021/05/28 01:59:36;;;;;;;;;;;;;;;8.33;100.00;96415.28;1278417;23;20330;-65
2021/05/28 02:00:07;;;;;;;;;;;;;;;8.33;100.00;96423.28;1272545;23;19931;-65
2021/05/28 02:00:38;;;;;;;;;;;;;;;8.34;100.00;96422.25;1272273;23;19995;-65
2021/05/28 02:01:08;;;;;;;;;;;;;;;8.31;100.00;96414.75;1272771;23;19907;-65
2021/05/28 02:01:38;;;;;;;;;;;;;;;8.28;100.00;96417.06;1278583;23;19908;-65
2021/05/28 02:02:08;;;;;;;;;;;;;;;8.28;100.00;96417.88;1278840;23;20271;-65
2021/05/28 02:02:39;;;;;;;;;;;;;;;8.30;100.00;96415.00;1278841;23;19954;-65
2021/05/28 02:03:09;;;;;;;;;;;;;;;8.30;100.00;96415.00;1278902;23;19923;-65
2021/05/28 02:03:39;;;;;;;;;;;;;;;8.28;100.00;96423.19;1278884;23;19908;-65
2021/05/28 02:04:10;;;;;;;;;;;;;;;8.26;100.00;96420.00;1278675;23;19904;-65
2021/05/28 02:04:42;;;;;;;;;;;;;;;8.27;100.00;96420.78;1278329;23;19908;-65
2021/05/28 02:05:12;;;;;;;;;;;;;;;8.28;100.00;96417.06;1278570;23;19901;-65
2021/05/28 02:05:42;;;;;;;;;;;;;;;8.29;100.00;96419.50;1278421;23;19912;-65
2021/05/28 02:06:13;;;;;;;;;;;;;;;8.27;100.00;96420.78;1278489;23;19900;-65
2021/05/28 02:06:43;;;;;;;;;;;;;;;8.27;100.00;96412.81;1278690;23;19928;-65
2021/05/28 02:07:13;;;;;;;;;;;;;;;8.27;100.00;96420.78;1278836;23;19896;-65
2021/05/28 02:07:44;;;;;;;;;;;;;;;8.26;100.00;96417.31;1278668;23;20314;-65
2021/05/28 02:08:14;;;;;;;;;;;;;;;8.26;100.00;96414.66;1278729;23;19956;-65
2021/05/28 02:08:44;;;;;;;;;;;;;;;8.27;100.00;96410.13;1278731;23;19908;-63
2021/05/28 02:09:14;;;;;;;;;;;;;;;8.27;100.00;96410.13;1278893;23;19897;-63
2021/05/28 02:09:45;;;;;;;;;;;;;;;8.28;100.00;96417.06;1278790;23;20370;-63
2021/05/28 02:10:15;;;;;;;;;;;;;;;8.29;100.00;96413.34;1278864;23;19900;-64
2021/05/28 02:10:46;;;;;;;;;;;;;;;8.28;100.00;96412.56;1278714;23;19936;-64
2021/05/28 02:11:16;;;;;;;;;;;;;;;8.33;100.00;96419.81;1279307;23;19896;-64
2021/05/28 02:11:46;;;;;;;;;;;;;;;8.31;100.00;96411.28;1279211;23;19908;-64
2021/05/28 02:12:17;;;;;;;;;;;;;;;8.27;100.00;96412.81;1278883;23;19944;-64
2021/05/28 02:12:47;;;;;;;;;;;;;;;8.26;100.00;96412.00;1278787;23;19912;-64
2021/05/28 02:13:17;;;;;;;;;;;;;;;8.27;100.00;96405.63;1278787;23;19896;-64
2021/05/28 02:13:48;;;;;;;;;;;;;;;8.29;100.00;96408.03;1272375;23;19931;-64
2021/05/28 02:14:18;;;;;;;;;;;;;;;8.30;100.00;96413.13;1278671;23;19908;-64
2021/05/28 02:14:50;;;;;;;;;;;;;;;8.30;100.00;96415.00;1278667;23;20310;-64
2021/05/28 02:15:20;;;;;;;;;;;;;;;8.25;100.00;96407.72;1278502;23;19897;-64
2021/05/28 02:15:51;;;;;;;;;;;;;;;8.27;100.00;96408.28;1278534;23;19912;-64
2021/05/28 02:16:21;;;;;;;;;;;;;;;8.27;100.00;96410.94;1278573;23;19903;-64
2021/05/28 02:16:51;;;;;;;;;;;;;;;8.28;100.00;96411.75;1278496;23;19908;-64
2021/05/28 02:17:21;;;;;;;;;;;;;;;8.28;100.00;96412.56;1278712;23;19896;-64
2021/05/28 02:17:52;;;;;;;;;;;;;;;8.28;100.00;96407.22;1278598;23;19908;-64
2021/05/28 02:18:22;;;;;;;;;;;;;;;8.28;100.00;96409.88;1278655;23;19896;-64
2021/05/28 02:18:53;;;;;;;;;;;;;;;8.30;100.00;96409.66;1278685;23;19955;-64
2021/05/28 02:19:23;;;;;;;;;;;;;;;8.31;100.00;96406.75;1278572;23;19900;-64
2021/05/28 02:19:54;;;;;;;;;;;;;;;8.31;100.00;96412.06;1278670;23;19916;-64
2021/05/28 02:20:24;;;;;;;;;;;;;;;8.29;100.00;96414.19;1278698;23;19983;-64
2021/05/28 02:20:54;;;;;;;;;;;;;;;8.30;100.00;96410.47;1278763;23;20334;-64
2021/05/28 02:21:25;;;;;;;;;;;;;;;8.31;100.00;96417.41;1272761;23;19897;-64
2021/05/28 02:21:55;;;;;;;;;;;;;;;8.25;100.00;96410.41;1278832;23;19908;-64
2021/05/28 02:22:25;;;;;;;;;;;;;;;8.28;100.00;96409.09;1278840;23;19896;-64
2021/05/28 02:22:56;;;;;;;;;;;;;;;8.28;100.00;96407.22;1278870;23;19915;-64
2021/05/28 02:23:26;;;;;;;;;;;;;;;8.28;100.00;96411.75;1279196;23;19896;-64
2021/05/28 02:23:56;;;;;;;;;;;;;;;8.27;100.00;96410.94;1278980;23;19954;-64
2021/05/28 02:24:26;;;;;;;;;;;;;;;8.28;100.00;96412.56;1278952;23;19975;-64
2021/05/28 02:24:57;;;;;;;;;;;;;;;8.28;100.00;96417.88;1279155;23;20327;-64
2021/05/28 02:25:27;;;;;;;;;;;;;;;8.27;100.00;96415.47;1279213;23;19900;-64
2021/05/28 02:25:57;;;;;;;;;;;;;;;8.27;100.00;96405.63;1279133;23;19940;-64
2021/05/28 02:26:27;;;;;;;;;;;;;;;8.27;100.00;96408.28;1278928;23;19896;-64
2021/05/28 02:26:58;;;;;;;;;;;;;;;8.28;100.00;96412.56;1279121;23;19943;-64
2021/05/28 02:27:28;;;;;;;;;;;;;;;8.28;100.00;96412.56;1278975;23;20257;-64
2021/05/28 02:27:58;;;;;;;;;;;;;;;8.29;100.00;96414.19;1278564;23;19914;-64
2021/05/28 02:28:28;;;;;;;;;;;;;;;8.28;100.00;96414.41;1278639;23;19951;-64
2021/05/28 02:28:59;;;;;;;;;;;;;;;8.29;100.00;96422.19;1272553;23;19908;-64
2021/05/28 02:29:29;;;;;;;;;;;;;;;8.27;100.00;96416.28;1272304;23;19932;-65
2021/05/28 02:29:59;;;;;;;;;;;;;;;8.28;100.00;96417.06;1278638;23;20335;-65
2021/05/28 02:30:30;;;;;;;;;;;;;;;8.28;100.00;96417.88;1278673;23;19957;-65
2021/05/28 02:31:00;;;;;;;;;;;;;;;8.29;100.00;96414.19;1279099;23;19908;-64
2021/05/28 02:31:30;;;;;;;;;;;;;;;8.27;100.00;96418.94;1279048;23;20421;-64
2021/05/28 02:32:00;;;;;;;;;;;;;;;8.26;100.00;96419.19;1279221;23;19995;-65
2021/05/28 02:32:31;;;;;;;;;;;;;;;8.23;100.00;96425.00;1279084;23;19905;-64
2021/05/28 02:33:01;;;;;;;;;;;;;;;8.22;100.00;96413.53;1279127;23;19908;-64
2021/05/28 02:33:31;;;;;;;;;;;;;;;8.21;100.00;96417.25;1279130;23;19911;-64
2021/05/28 02:34:02;;;;;;;;;;;;;;;8.23;100.00;96423.13;1279023;23;19915;-64
2021/05/28 02:34:32;;;;;;;;;;;;;;;8.24;100.00;96416.78;1279077;23;20287;-64
2021/05/28 02:35:03;;;;;;;;;;;;;;;8.25;100.00;96415.72;1279182;23;19954;-64
2021/05/28 02:35:33;;;;;;;;;;;;;;;8.24;100.00;96415.94;1278876;23;19959;-64
2021/05/28 02:36:04;;;;;;;;;;;;;;;8.26;100.00;96413.88;1278773;23;19908;-64
2021/05/28 02:36:34;;;;;;;;;;;;;;;8.24;100.00;96416.78;1278837;23;19904;-64
2021/05/28 02:37:05;;;;;;;;;;;;;;;8.24;100.00;96416.78;1278760;23;20409;-64
2021/05/28 02:37:35;;;;;;;;;;;;;;;8.22;100.00;96416.19;1279223;23;20296;-64
2021/05/28 02:38:05;;;;;;;;;;;;;;;8.23;100.00;96417.00;1279132;23;19959;-64
2021/05/28 02:38:35;;;;;;;;;;;;;;;8.22;100.00;96412.72;1279203;23;19936;-64